createdAt,value
2022-10-06T00:00:50.495Z,95348.84
2022-10-06T00:03:17.579Z,95342.13
2022-10-06T00:05:44.512Z,95346.34
2022-10-06T00:08:11.702Z,95340.69
2022-10-06T00:10:40.431Z,95355.50
2022-10-06T00:13:07.357Z,95358.94
2022-10-06T00:15:34.291Z,95356.84
2022-10-06T00:18:02.068Z,95351.88
2022-10-06T00:20:29.124Z,95351.25
2022-10-06T00:22:57.141Z,95347.91
2022-10-06T00:25:25.375Z,95346.88
2022-10-06T00:27:53.163Z,95345.47
2022-10-06T00:30:22.265Z,95340.22
2022-10-06T00:33:00.904Z,95344.94
2022-10-06T00:35:33.744Z,95335.53
2022-10-06T00:38:01.082Z,95331.34
2022-10-06T00:40:29.061Z,95337.16
2022-10-06T00:42:58.415Z,95329.56
2022-10-06T00:45:33.543Z,95317.75
2022-10-06T00:48:05.342Z,95331.41
2022-10-06T00:50:32.226Z,95320.88
2022-10-06T00:52:59.069Z,95314.25
2022-10-06T00:55:26.034Z,95310.75
2022-10-06T00:57:53.009Z,95308.19
2022-10-06T01:00:20.635Z,95310.69
2022-10-06T01:02:54.793Z,95303.78
2022-10-06T01:05:28.748Z,95305.88
2022-10-06T01:07:55.843Z,95301.00
2022-10-06T01:10:22.546Z,95298.97
2022-10-06T01:12:49.277Z,95298.44
2022-10-06T01:15:16.796Z,95296.59
2022-10-06T01:17:55.269Z,95287.38
2022-10-06T01:20:23.154Z,95283.56
2022-10-06T01:22:55.466Z,95290.66
2022-10-06T01:25:23.048Z,95277.13
2022-10-06T01:27:53.873Z,95284.06
2022-10-06T01:30:30.384Z,95280.16
2022-10-06T01:32:57.006Z,95276.25
2022-10-06T01:35:23.809Z,95286.16
2022-10-06T01:37:50.469Z,95280.66
2022-10-06T01:40:17.180Z,95277.84
2022-10-06T01:42:43.815Z,95281.31
2022-10-06T01:45:10.784Z,95281.25
2022-10-06T01:47:37.357Z,95286.22
2022-10-06T01:50:05.538Z,95281.78
2022-10-06T01:52:32.168Z,95270.59
2022-10-06T01:54:58.774Z,95284.72
2022-10-06T01:57:25.374Z,95287.03
2022-10-06T01:59:54.779Z,95281.00
2022-10-06T02:02:21.880Z,95293.72
2022-10-06T02:04:48.606Z,95286.88
2022-10-06T02:07:15.413Z,95285.78
2022-10-06T02:09:42.031Z,95285.28
2022-10-06T02:12:08.663Z,95288.94
2022-10-06T02:14:35.238Z,95283.06
2022-10-06T02:17:01.833Z,95284.00
2022-10-06T02:19:28.424Z,95285.66
2022-10-06T02:21:55.948Z,95276.63
2022-10-06T02:24:22.497Z,95280.94
2022-10-06T02:26:49.145Z,95290.13
2022-10-06T02:29:15.723Z,95287.38
2022-10-06T02:31:42.437Z,95275.69
2022-10-06T02:34:10.130Z,95278.16
2022-10-06T02:36:36.787Z,95279.63
2022-10-06T02:39:04.284Z,95282.47
2022-10-06T02:41:31.810Z,95279.25
2022-10-06T02:43:58.714Z,95288.38
2022-10-06T02:46:25.689Z,95288.22
2022-10-06T02:48:53.849Z,95285.03
2022-10-06T02:51:22.051Z,95289.53
2022-10-06T02:53:50.155Z,95285.13
2022-10-06T02:56:25.297Z,95291.25
2022-10-06T02:58:53.369Z,95298.75
2022-10-06T03:01:23.975Z,95293.78
2022-10-06T03:03:50.698Z,95293.00
2022-10-06T03:06:23.408Z,95291.97
2022-10-06T03:08:58.996Z,95294.00
2022-10-06T03:11:34.685Z,95290.13
2022-10-06T03:14:01.565Z,95293.56
2022-10-06T03:16:33.592Z,95293.34
2022-10-06T03:19:01.629Z,95289.53
2022-10-06T03:21:30.839Z,95285.13
2022-10-06T03:23:58.853Z,95279.91
2022-10-06T03:26:31.536Z,95286.25
2022-10-06T03:28:58.531Z,95280.44
2022-10-06T03:31:25.626Z,95277.72
2022-10-06T03:33:55.181Z,95280.72
2022-10-06T03:36:23.624Z,95279.47
2022-10-06T03:38:50.875Z,95275.88
2022-10-06T03:41:20.261Z,95270.66
2022-10-06T03:43:49.018Z,95272.44
2022-10-06T03:46:18.744Z,95272.38
2022-10-06T03:48:46.381Z,95275.34
2022-10-06T03:51:18.786Z,95277.38
2022-10-06T03:53:47.246Z,95261.47
2022-10-06T03:56:22.663Z,95269.94
2022-10-06T03:58:57.823Z,95276.13
2022-10-06T04:01:30.614Z,95269.13
2022-10-06T04:03:59.494Z,95274.03
2022-10-06T04:06:27.737Z,95272.19
2022-10-06T04:08:55.285Z,95280.00
2022-10-06T04:11:30.718Z,95275.13
2022-10-06T04:14:02.822Z,95277.59
2022-10-06T04:16:32.110Z,95277.91
2022-10-06T04:19:00.975Z,95274.91
2022-10-06T04:21:28.988Z,95280.03
2022-10-06T04:23:59.777Z,95278.28
2022-10-06T04:26:30.748Z,95276.88
2022-10-06T04:28:57.586Z,95278.41
2022-10-06T04:31:37.116Z,95281.13
2022-10-06T04:34:05.370Z,95275.78
2022-10-06T04:36:41.016Z,95283.81
2022-10-06T04:39:10.694Z,95284.56
2022-10-06T04:41:39.720Z,95289.88
2022-10-06T04:44:07.397Z,95285.13
2022-10-06T04:46:43.843Z,95280.56
2022-10-06T04:49:17.944Z,95285.41
2022-10-06T04:51:46.259Z,95288.22
2022-10-06T04:54:12.905Z,95290.88
2022-10-06T04:56:39.507Z,95292.25
2022-10-06T04:59:06.113Z,95292.47
2022-10-06T05:01:35.593Z,95296.63
2022-10-06T05:04:04.252Z,95298.13
2022-10-06T05:06:39.009Z,95297.03
2022-10-06T05:09:11.388Z,95298.19
2022-10-06T05:11:38.260Z,95300.34
2022-10-06T05:14:05.544Z,95294.34
2022-10-06T05:16:32.589Z,95298.25
2022-10-06T05:18:59.599Z,95308.06
2022-10-06T05:21:29.364Z,95302.22
2022-10-06T05:23:56.213Z,95305.09
2022-10-06T05:26:24.597Z,95298.75
2022-10-06T05:28:51.444Z,95294.13
2022-10-06T05:31:32.829Z,95295.03
2022-10-06T05:33:59.986Z,95295.38
2022-10-06T05:36:32.898Z,95295.59
2022-10-06T05:39:00.453Z,95287.03
2022-10-06T05:41:32.865Z,95283.25
2022-10-06T05:44:00.078Z,95286.53
2022-10-06T05:46:29.016Z,95293.84
2022-10-06T05:49:14.824Z,95297.41
2022-10-06T05:51:42.021Z,95298.81
2022-10-06T05:54:08.742Z,95308.59
2022-10-06T05:56:37.657Z,95309.53
2022-10-06T05:59:05.192Z,95303.53
2022-10-06T06:01:33.020Z,95307.69
2022-10-06T06:04:03.744Z,95309.91
2022-10-06T06:06:38.459Z,95310.81
2022-10-06T06:09:20.369Z,95321.44
2022-10-06T06:11:52.674Z,95315.19
2022-10-06T06:14:43.997Z,95318.31
2022-10-06T06:17:11.568Z,95315.78
2022-10-06T06:19:38.217Z,95316.63
2022-10-06T06:22:04.847Z,95312.25
2022-10-06T06:24:31.427Z,95314.97
2022-10-06T06:26:57.986Z,95312.75
2022-10-06T06:29:24.582Z,95314.72
2022-10-06T06:31:51.401Z,95315.88
2022-10-06T06:34:18.065Z,95314.38
2022-10-06T06:36:47.140Z,95324.25
2022-10-06T06:39:15.673Z,95323.81
2022-10-06T06:41:48.957Z,95318.81
2022-10-06T06:44:15.519Z,95315.66
2022-10-06T06:46:44.889Z,95322.50
2022-10-06T06:49:15.564Z,95320.41
2022-10-06T06:51:44.412Z,95318.41
2022-10-06T06:54:12.925Z,95320.84
2022-10-06T06:56:39.850Z,95309.94
2022-10-06T06:59:12.006Z,95313.94
2022-10-06T07:01:47.175Z,95310.50
2022-10-06T07:04:15.973Z,95309.00
2022-10-06T07:06:47.612Z,95308.34
2022-10-06T07:09:14.284Z,95306.09
2022-10-06T07:11:41.129Z,95307.78
2022-10-06T07:14:12.612Z,95305.06
2022-10-06T07:16:58.270Z,95303.88
2022-10-06T07:19:43.396Z,95296.25
2022-10-06T07:22:28.387Z,95298.34
2022-10-06T07:25:12.955Z,95301.81
2022-10-06T07:27:42.267Z,95303.09
2022-10-06T07:30:30.154Z,95302.63
2022-10-06T07:32:56.739Z,95294.69
2022-10-06T07:35:24.959Z,95288.06
2022-10-06T07:37:55.094Z,95286.97
2022-10-06T07:40:21.673Z,95282.38
2022-10-06T07:42:48.424Z,95276.00
2022-10-06T07:45:33.789Z,95284.19
2022-10-06T07:48:02.484Z,95286.94
2022-10-06T07:50:29.376Z,95291.25
2022-10-06T07:52:56.364Z,95294.13
2022-10-06T07:55:23.046Z,95284.56
2022-10-06T07:57:51.257Z,95294.56
2022-10-06T08:00:20.921Z,95297.56
2022-10-06T08:02:47.569Z,95294.91
2022-10-06T08:05:14.561Z,95297.22
2022-10-06T08:07:41.416Z,95293.69
2022-10-06T08:10:08.351Z,95303.09
2022-10-06T08:12:37.354Z,95304.59
2022-10-06T08:15:07.598Z,95296.72
2022-10-06T08:17:36.342Z,95299.28
2022-10-06T08:20:04.516Z,95294.34
2022-10-06T08:22:31.192Z,95297.03
2022-10-06T08:25:05.745Z,95298.31
2022-10-06T08:27:37.069Z,95292.97
2022-10-06T08:30:07.856Z,95292.34
2022-10-06T08:32:34.520Z,95279.28
2022-10-06T08:35:01.452Z,95288.41
2022-10-06T08:37:28.103Z,95289.72
2022-10-06T08:39:55.437Z,95279.97
2022-10-06T08:42:33.933Z,95279.44
2022-10-06T08:45:04.951Z,95275.56
2022-10-06T08:47:35.990Z,95279.19
2022-10-06T08:50:05.664Z,95278.41
2022-10-06T08:52:46.276Z,95276.50
2022-10-06T08:55:24.785Z,95273.00
2022-10-06T09:00:42.550Z,95276.56
2022-10-06T09:03:24.340Z,95277.56
2022-10-06T09:05:54.986Z,95276.00
2022-10-06T09:08:50.740Z,95280.81
2022-10-06T09:11:55.282Z,95274.13
2022-10-06T09:14:29.773Z,95269.59
2022-10-06T09:17:01.303Z,95267.56
2022-10-06T09:19:47.476Z,95276.41
2022-10-06T09:22:20.660Z,95268.56
2022-10-06T09:24:51.253Z,95263.56
2022-10-06T09:27:41.322Z,95264.47
2022-10-06T09:30:13.270Z,95262.63
2022-10-06T09:32:46.909Z,95261.44
2022-10-06T09:35:23.261Z,95254.91
2022-10-06T09:38:08.810Z,95248.94
2022-10-06T09:40:54.015Z,95245.63
2022-10-06T09:43:31.118Z,95246.34
2022-10-06T09:46:21.458Z,95236.16
2022-10-06T09:48:48.185Z,95233.47
2022-10-06T09:51:18.275Z,95244.19
2022-10-06T09:54:12.753Z,95233.88
2022-10-06T09:56:45.544Z,95238.22
2022-10-06T09:59:37.625Z,95237.22
2022-10-06T10:02:28.514Z,95242.22
2022-10-06T10:05:07.391Z,95231.34
2022-10-06T10:07:35.988Z,95233.00
2022-10-06T10:10:23.183Z,95230.38
2022-10-06T10:13:00.487Z,95236.53
2022-10-06T10:15:40.548Z,95235.56
2022-10-06T10:18:17.162Z,95228.56
2022-10-06T10:20:59.014Z,95223.56
2022-10-06T10:23:31.739Z,95230.53
2022-10-06T10:26:08.173Z,95223.28
2022-10-06T10:28:59.779Z,95225.50
2022-10-06T10:31:48.419Z,95214.16
2022-10-06T10:34:47.300Z,95213.38
2022-10-06T10:37:25.693Z,95203.00
2022-10-06T10:40:00.522Z,95212.38
2022-10-06T10:42:38.544Z,95203.06
2022-10-06T10:45:15.111Z,95207.91
2022-10-06T10:47:46.869Z,95209.28
2022-10-06T10:50:28.338Z,95197.75
2022-10-06T10:53:02.278Z,95201.09
2022-10-06T10:55:34.454Z,95195.97
2022-10-06T10:58:29.037Z,95189.38
2022-10-06T11:01:02.527Z,95187.97
2022-10-06T11:03:29.129Z,95190.84
2022-10-06T11:06:22.771Z,95188.19
2022-10-06T11:08:52.042Z,95187.19
2022-10-06T11:11:55.432Z,95181.13
2022-10-06T11:14:59.879Z,95175.59
2022-10-06T11:17:44.934Z,95169.13
2022-10-06T11:20:36.467Z,95175.25
2022-10-06T11:23:18.723Z,95172.75
2022-10-06T11:26:08.029Z,95162.88
2022-10-06T11:28:59.734Z,95153.66
2022-10-06T11:31:32.189Z,95156.16
2022-10-06T11:34:02.031Z,95157.91
2022-10-06T11:36:37.732Z,95145.97
2022-10-06T11:39:13.343Z,95140.19
2022-10-06T11:41:49.432Z,95139.41
2022-10-06T11:44:34.448Z,95133.28
2022-10-06T11:47:36.330Z,95130.56
2022-10-06T11:50:36.767Z,95129.81
2022-10-06T11:53:26.841Z,95127.56
2022-10-06T11:56:19.434Z,95118.34
2022-10-06T11:58:54.634Z,95116.25
2022-10-06T12:01:50.435Z,95117.25
2022-10-06T12:04:24.715Z,95116.69
2022-10-06T12:06:52.150Z,95113.53
2022-10-06T12:09:33.376Z,95105.13
2022-10-06T12:12:07.099Z,95100.63
2022-10-06T12:17:58.062Z,95101.25
2022-10-06T12:21:06.456Z,95095.91
2022-10-06T12:23:42.903Z,95097.22
2022-10-06T12:26:25.677Z,95092.28
2022-10-06T12:28:59.399Z,95085.31
2022-10-06T12:31:47.609Z,95089.03
2022-10-06T12:34:51.857Z,95090.50
2022-10-06T12:37:33.509Z,95084.69
2022-10-06T12:40:38.179Z,95079.38
2022-10-06T12:43:20.895Z,95077.53
2022-10-06T12:46:02.143Z,95074.41
2022-10-06T12:49:04.628Z,95069.00
2022-10-06T12:51:36.221Z,95074.03
2022-10-06T12:54:25.369Z,95068.25
2022-10-06T12:57:03.624Z,95070.97
2022-10-06T12:59:35.254Z,95070.22
2022-10-06T13:02:08.031Z,95066.31
2022-10-06T13:04:53.957Z,95059.69
2022-10-06T13:07:20.542Z,95057.72
2022-10-06T13:09:50.076Z,95055.84
2022-10-06T13:12:32.330Z,95046.94
2022-10-06T13:15:41.555Z,95054.69
2022-10-06T13:18:08.049Z,95045.00
2022-10-06T13:20:49.232Z,95041.13
2022-10-06T13:23:26.658Z,95040.72
2022-10-06T13:26:02.474Z,95041.13
2022-10-06T13:28:44.077Z,95046.94
2022-10-06T13:31:26.760Z,95041.13
2022-10-06T13:34:13.869Z,95041.88
2022-10-06T13:36:47.563Z,95043.44
2022-10-06T13:39:16.668Z,95039.19
2022-10-06T13:41:47.965Z,95044.59
2022-10-06T13:44:14.494Z,95036.47
2022-10-06T13:46:45.965Z,95038.81
2022-10-06T13:49:26.307Z,95049.66
2022-10-06T13:51:54.653Z,95053.53
2022-10-06T13:54:33.317Z,95035.31
2022-10-06T13:56:59.953Z,95043.41
2022-10-06T13:59:32.892Z,95044.22
2022-10-06T14:02:17.867Z,95039.56
2022-10-06T14:04:45.245Z,95036.03
2022-10-06T14:07:14.200Z,95037.97
2022-10-06T14:09:42.973Z,95031.81
2022-10-06T14:12:18.460Z,95038.75
2022-10-06T14:14:51.058Z,95038.75
2022-10-06T14:17:24.439Z,95042.19
2022-10-06T14:19:54.986Z,95045.72
2022-10-06T14:23:07.513Z,95049.94
2022-10-06T14:25:43.111Z,95048.00
2022-10-06T14:28:13.125Z,95043.34
2022-10-06T14:30:51.122Z,95052.59
2022-10-06T14:33:40.657Z,95042.47
2022-10-06T14:36:19.685Z,95047.16
2022-10-06T14:38:51.209Z,95041.75
2022-10-06T14:41:31.722Z,95050.66
2022-10-06T14:44:08.435Z,95055.22
2022-10-06T14:46:40.643Z,95052.84
2022-10-06T14:49:09.701Z,95057.09
2022-10-06T14:51:37.355Z,95057.03
2022-10-06T14:54:06.044Z,95056.25
2022-10-06T14:56:34.945Z,95055.38
2022-10-06T14:59:07.145Z,95062.69
2022-10-06T15:01:36.666Z,95073.84
2022-10-06T15:04:07.226Z,95067.16
2022-10-06T15:06:52.424Z,95063.28
2022-10-06T15:09:19.040Z,95068.22
2022-10-06T15:11:45.779Z,95074.25
2022-10-06T15:14:12.449Z,95071.13
2022-10-06T15:16:42.416Z,95071.84
2022-10-06T15:19:10.964Z,95065.22
2022-10-06T15:21:39.906Z,95077.47
2022-10-06T15:24:08.146Z,95072.72
2022-10-06T15:26:53.274Z,95084.28
2022-10-06T15:29:20.071Z,95078.44
2022-10-06T15:31:55.356Z,95085.00
2022-10-06T15:34:27.368Z,95082.22
2022-10-06T15:36:55.495Z,95086.97
2022-10-06T15:39:24.443Z,95081.56
2022-10-06T15:41:51.362Z,95080.28
2022-10-06T15:44:21.985Z,95078.75
2022-10-06T15:46:50.791Z,95084.91
2022-10-06T15:49:22.776Z,95081.38
2022-10-06T15:52:11.548Z,95082.69
2022-10-06T15:54:40.989Z,95085.06
2022-10-06T15:57:10.524Z,95081.22
2022-10-06T15:59:40.020Z,95071.91
2022-10-06T16:02:15.704Z,95081.84
2022-10-06T16:04:43.131Z,95083.06
2022-10-06T16:07:12.194Z,95078.75
2022-10-06T16:09:51.063Z,95079.41
2022-10-06T16:12:21.370Z,95087.22
2022-10-06T16:14:48.288Z,95085.97
2022-10-06T16:17:15.473Z,95084.53
2022-10-06T16:19:42.822Z,95086.59
2022-10-06T16:22:14.592Z,95089.66
2022-10-06T16:24:41.872Z,95088.09
2022-10-06T16:27:13.200Z,95095.53
2022-10-06T16:29:40.538Z,95102.50
2022-10-06T16:32:07.161Z,95107.84
2022-10-06T16:34:33.840Z,95104.72
2022-10-06T16:37:03.728Z,95103.50
2022-10-06T16:39:30.465Z,95102.44
2022-10-06T16:41:57.111Z,95108.19
2022-10-06T16:44:23.813Z,95112.19
2022-10-06T16:46:53.730Z,95123.19
2022-10-06T16:49:27.063Z,95127.38
2022-10-06T16:51:53.717Z,95119.94
2022-10-06T16:54:21.163Z,95120.38
2022-10-06T16:56:53.904Z,95128.53
2022-10-06T16:59:22.994Z,95125.78
2022-10-06T17:01:50.596Z,95131.09
2022-10-06T17:04:30.793Z,95127.56
2022-10-06T17:06:57.735Z,95133.38
2022-10-06T17:09:27.845Z,95127.25
2022-10-06T17:12:02.104Z,95129.16
2022-10-06T17:14:30.654Z,95128.38
2022-10-06T17:16:58.141Z,95131.41
2022-10-06T17:19:31.967Z,95131.47
2022-10-06T17:22:02.896Z,95124.38
2022-10-06T17:24:31.283Z,95144.47
2022-10-06T17:26:58.559Z,95147.16
2022-10-06T17:29:27.091Z,95150.03
2022-10-06T17:32:00.300Z,95147.69
2022-10-06T17:34:32.744Z,95141.41
2022-10-06T17:37:02.254Z,95141.81
2022-10-06T17:39:29.884Z,95143.44
2022-10-06T17:41:56.796Z,95144.88
2022-10-06T17:44:27.043Z,95141.69
2022-10-06T17:46:56.819Z,95147.72
2022-10-06T17:49:24.437Z,95148.50
2022-10-06T17:51:52.889Z,95148.84
2022-10-06T17:54:21.994Z,95149.47
2022-10-06T17:56:50.619Z,95148.78
2022-10-06T17:59:28.583Z,95158.97
2022-10-06T18:01:57.017Z,95167.06
2022-10-06T18:04:24.328Z,95161.53
2022-10-06T18:06:54.034Z,95162.69
2022-10-06T18:09:21.604Z,95166.88
2022-10-06T18:11:48.598Z,95164.22
2022-10-06T18:14:17.644Z,95162.41
2022-10-06T18:16:59.171Z,95167.50
2022-10-06T18:19:31.138Z,95169.50
2022-10-06T18:22:01.384Z,95164.94
2022-10-06T18:24:30.026Z,95165.38
2022-10-06T18:26:59.881Z,95164.47
2022-10-06T18:29:30.721Z,95171.41
2022-10-06T18:32:14.510Z,95171.78
2022-10-06T18:37:30.581Z,95168.22
2022-10-06T18:39:57.219Z,95170.53
2022-10-06T18:42:24.158Z,95168.09
2022-10-06T18:45:09.397Z,95164.59
2022-10-06T18:47:54.277Z,95168.75
2022-10-06T18:50:20.977Z,95170.53
2022-10-06T18:52:47.586Z,95174.44
2022-10-06T18:55:14.140Z,95179.47
2022-10-06T18:57:41.327Z,95181.38
2022-10-06T19:00:10.461Z,95179.84
2022-10-06T19:02:37.054Z,95177.81
2022-10-06T19:05:04.910Z,95177.81
2022-10-06T19:07:31.664Z,95177.94
2022-10-06T19:09:58.685Z,95183.16
2022-10-06T19:12:25.343Z,95178.53
2022-10-06T19:14:52.046Z,95182.09
2022-10-06T19:17:18.680Z,95173.28
2022-10-06T19:19:57.080Z,95175.91
2022-10-06T19:22:26.731Z,95173.97
2022-10-06T19:24:53.307Z,95183.63
2022-10-06T19:27:24.968Z,95187.28
2022-10-06T19:29:54.774Z,95183.31
2022-10-06T19:32:24.638Z,95187.56
2022-10-06T19:34:52.278Z,95198.34
2022-10-06T19:37:19.634Z,95198.78
2022-10-06T19:39:48.153Z,95201.38
2022-10-06T19:42:35.543Z,95196.34
2022-10-06T19:45:02.445Z,95200.88
2022-10-06T19:47:29.824Z,95201.56
2022-10-06T19:50:02.154Z,95213.06
2022-10-06T19:52:31.334Z,95209.41
2022-10-06T19:54:58.193Z,95203.94
2022-10-06T19:57:25.135Z,95204.69
2022-10-06T19:59:51.789Z,95208.44
2022-10-06T20:02:18.522Z,95209.50
2022-10-06T20:04:45.484Z,95213.31
2022-10-06T20:07:12.733Z,95206.88
2022-10-06T20:09:39.430Z,95202.28
2022-10-06T20:12:06.054Z,95204.34
2022-10-06T20:14:32.699Z,95209.66
2022-10-06T20:16:59.349Z,95203.75
2022-10-06T20:19:26.043Z,95213.66
2022-10-06T20:21:53.187Z,95205.06
2022-10-06T20:24:22.972Z,95208.09
2022-10-06T20:26:50.866Z,95206.97
2022-10-06T20:29:23.658Z,95205.13
2022-10-06T20:31:56.071Z,95209.47
2022-10-06T20:34:26.340Z,95207.88
2022-10-06T20:36:56.242Z,95208.44
2022-10-06T20:39:42.053Z,95200.94
2022-10-06T20:42:14.722Z,95209.38
2022-10-06T20:44:42.679Z,95205.91
2022-10-06T20:47:11.885Z,95216.13
2022-10-06T20:49:39.545Z,95211.34
2022-10-06T20:52:09.779Z,95213.63
2022-10-06T20:54:37.272Z,95220.56
2022-10-06T20:57:06.192Z,95223.06
2022-10-06T20:59:36.514Z,95218.75
2022-10-06T21:02:05.101Z,95220.56
2022-10-06T21:04:34.992Z,95214.03
2022-10-06T21:07:05.711Z,95222.03
2022-10-06T21:09:32.435Z,95206.59
2022-10-06T21:12:05.142Z,95207.72
2022-10-06T21:14:31.806Z,95210.41
2022-10-06T21:17:01.393Z,95207.28
2022-10-06T21:19:29.894Z,95212.06
2022-10-06T21:21:59.801Z,95219.09
2022-10-06T21:24:26.538Z,95211.81
2022-10-06T21:26:53.121Z,95215.88
2022-10-06T21:29:20.546Z,95207.28
2022-10-06T21:31:47.431Z,95218.72
2022-10-06T21:34:14.479Z,95222.47
2022-10-06T21:36:47.466Z,95213.09
2022-10-06T21:39:14.001Z,95220.91
2022-10-06T21:41:41.320Z,95225.06
2022-10-06T21:44:10.254Z,95229.22
2022-10-06T21:46:57.499Z,95227.78
2022-10-06T21:49:25.408Z,95220.72
2022-10-06T21:51:54.101Z,95230.00
2022-10-06T21:54:21.598Z,95221.75
2022-10-06T21:56:48.725Z,95220.44
2022-10-06T21:59:15.827Z,95217.50
2022-10-06T22:01:44.802Z,95218.09
2022-10-06T22:04:14.110Z,95223.75
2022-10-06T22:06:41.391Z,95217.63
2022-10-06T22:09:09.945Z,95213.41
2022-10-06T22:11:39.039Z,95207.31
2022-10-06T22:14:10.026Z,95216.00
2022-10-06T22:16:37.760Z,95204.38
2022-10-06T22:19:07.001Z,95201.41
2022-10-06T22:21:36.504Z,95205.75
2022-10-06T22:24:09.143Z,95204.00
2022-10-06T22:26:38.005Z,95204.19
2022-10-06T22:29:07.181Z,95201.16
2022-10-06T22:31:34.281Z,95208.72
2022-10-06T22:34:04.816Z,95200.19
2022-10-06T22:36:33.223Z,95205.81
2022-10-06T22:39:00.286Z,95205.19
2022-10-06T22:41:27.064Z,95206.75
2022-10-06T22:43:57.573Z,95203.19
2022-10-06T22:46:25.580Z,95208.13
2022-10-06T22:48:52.566Z,95208.22
2022-10-06T22:51:19.269Z,95203.53
2022-10-06T22:53:46.142Z,95200.84
2022-10-06T22:56:13.048Z,95203.72
2022-10-06T22:58:39.685Z,95199.69
2022-10-06T23:01:14.451Z,95210.84
2022-10-06T23:03:41.383Z,95203.34
2022-10-06T23:06:10.316Z,95205.16
2022-10-06T23:08:37.919Z,95213.91
2022-10-06T23:11:10.151Z,95208.53
2022-10-06T23:13:37.054Z,95204.59
2022-10-06T23:16:07.821Z,95205.28
2022-10-06T23:18:36.943Z,95208.44
2022-10-06T23:21:19.293Z,95208.66
2022-10-06T23:23:46.338Z,95207.00
2022-10-06T23:26:14.587Z,95208.31
2022-10-06T23:28:41.630Z,95209.09
2022-10-06T23:31:10.120Z,95207.84
2022-10-06T23:33:37.088Z,95217.72
2022-10-06T23:36:08.936Z,95212.66
2022-10-06T23:38:36.982Z,95215.03
2022-10-06T23:41:04.531Z,95215.31
2022-10-06T23:43:31.781Z,95211.94
2022-10-06T23:45:58.557Z,95219.50
2022-10-06T23:48:25.708Z,95213.44
2022-10-06T23:51:04.565Z,95210.91
2022-10-06T23:53:32.032Z,95212.13
2022-10-06T23:55:59.010Z,95211.69
2022-10-06T23:58:26.055Z,95207.88
